createdAt,value
2023-02-02T00:00:08.576Z,7.69
2023-02-02T00:01:11.485Z,11.08
2023-02-02T00:02:13.937Z,9.25
2023-02-02T00:03:16.489Z,11.65
2023-02-02T00:04:18.989Z,10.81
2023-02-02T00:05:21.935Z,11.30
2023-02-02T00:06:24.812Z,11.71
2023-02-02T00:07:27.365Z,12.26
2023-02-02T00:08:29.927Z,13.25
2023-02-02T00:09:32.537Z,11.43
2023-02-02T00:10:35.492Z,11.27
2023-02-02T00:11:37.949Z,11.89
2023-02-02T00:12:40.507Z,13.33
2023-02-02T00:13:43.061Z,13.27
2023-02-02T00:14:45.657Z,13.73
2023-02-02T00:15:48.203Z,13.31
2023-02-02T00:16:50.867Z,12.09
2023-02-02T00:17:53.409Z,13.31
2023-02-02T00:18:56.001Z,10.11
2023-02-02T00:19:58.583Z,13.22
2023-02-02T00:21:01.249Z,12.69
2023-02-02T00:22:03.805Z,12.47
2023-02-02T00:23:06.391Z,14.52
2023-02-02T00:24:08.973Z,10.69
2023-02-02T00:25:11.533Z,12.51
2023-02-02T00:26:14.319Z,12.21
2023-02-02T00:27:16.912Z,11.99
2023-02-02T00:28:19.873Z,10.93
2023-02-02T00:29:22.427Z,12.21
2023-02-02T00:30:25.371Z,11.04
2023-02-02T00:31:27.985Z,12.23
2023-02-02T00:32:30.609Z,12.08
2023-02-02T00:33:33.168Z,11.25
2023-02-02T00:34:35.722Z,11.63
2023-02-02T00:35:38.278Z,11.27
2023-02-02T00:36:41.041Z,10.81
2023-02-02T00:37:43.643Z,12.30
2023-02-02T00:38:46.206Z,12.06
2023-02-02T00:39:48.768Z,14.65
2023-02-02T00:40:51.422Z,12.73
2023-02-02T00:41:53.979Z,13.77
2023-02-02T00:42:56.550Z,12.55
2023-02-02T00:43:59.110Z,14.63
2023-02-02T00:45:01.675Z,12.24
2023-02-02T00:46:04.467Z,11.38
2023-02-02T00:47:06.993Z,12.49
2023-02-02T00:48:09.454Z,12.39
2023-02-02T00:49:12.024Z,14.33
2023-02-02T00:50:15.097Z,14.46
2023-02-02T00:51:17.652Z,14.75
2023-02-02T00:52:20.213Z,13.09
2023-02-02T00:53:22.775Z,13.35
2023-02-02T00:54:25.365Z,13.75
2023-02-02T00:55:28.200Z,14.22
2023-02-02T00:56:31.167Z,13.93
2023-02-02T00:57:33.740Z,11.90
2023-02-02T00:58:36.297Z,14.01
2023-02-02T00:59:38.850Z,12.00
2023-02-02T01:00:41.632Z,11.59
2023-02-02T01:01:44.161Z,10.35
2023-02-02T01:02:46.776Z,12.67
2023-02-02T01:03:49.345Z,10.59
2023-02-02T01:04:51.896Z,13.54
2023-02-02T01:05:54.493Z,10.36
2023-02-02T01:06:57.149Z,11.41
2023-02-02T01:07:59.707Z,14.85
2023-02-02T01:09:02.281Z,11.40
2023-02-02T01:10:04.848Z,11.70
2023-02-02T01:11:07.440Z,12.62
2023-02-02T01:12:10.000Z,12.78
2023-02-02T01:13:12.562Z,13.59
2023-02-02T01:14:15.117Z,14.49
2023-02-02T01:15:17.675Z,14.20
2023-02-02T01:16:20.694Z,14.69
2023-02-02T01:17:23.228Z,14.49
2023-02-02T01:18:25.801Z,15.38
2023-02-02T01:19:28.268Z,13.77
2023-02-02T01:20:30.920Z,15.07
2023-02-02T01:21:33.515Z,14.62
2023-02-02T01:22:36.113Z,16.71
2023-02-02T01:23:38.668Z,14.29
2023-02-02T01:24:41.241Z,16.03
2023-02-02T01:25:43.794Z,14.53
2023-02-02T01:26:46.735Z,15.61
2023-02-02T01:27:49.322Z,14.35
2023-02-02T01:28:52.027Z,14.17
2023-02-02T01:29:54.577Z,15.22
2023-02-02T01:30:57.668Z,15.28
2023-02-02T01:32:00.453Z,15.14
2023-02-02T01:33:03.299Z,14.51
2023-02-02T01:34:05.860Z,14.78
2023-02-02T01:35:08.414Z,14.05
2023-02-02T01:36:11.282Z,13.48
2023-02-02T01:37:13.840Z,14.41
2023-02-02T01:38:16.405Z,12.03
2023-02-02T01:39:18.963Z,13.05
2023-02-02T01:40:21.724Z,13.24
2023-02-02T01:41:24.291Z,12.96
2023-02-02T01:42:26.755Z,12.82
2023-02-02T01:43:29.316Z,12.27
2023-02-02T01:44:31.867Z,13.09
2023-02-02T01:45:34.479Z,14.75
2023-02-02T01:46:37.410Z,14.65
2023-02-02T01:47:39.996Z,13.55
2023-02-02T01:48:42.551Z,13.47
2023-02-02T01:49:45.105Z,13.93
2023-02-02T01:50:48.072Z,12.19
2023-02-02T01:51:50.628Z,12.27
2023-02-02T01:52:53.690Z,13.41
2023-02-02T01:53:56.402Z,13.41
2023-02-02T01:54:58.996Z,14.71
2023-02-02T01:56:01.530Z,13.64
2023-02-02T01:57:04.086Z,14.73
2023-02-02T01:58:06.662Z,13.95
2023-02-02T01:59:09.209Z,13.83
2023-02-02T02:00:12.389Z,14.44
2023-02-02T02:01:14.980Z,14.84
2023-02-02T02:02:17.735Z,15.36
2023-02-02T02:03:20.259Z,13.57
2023-02-02T02:04:22.821Z,14.14
2023-02-02T02:05:25.664Z,12.97
2023-02-02T02:06:28.751Z,12.65
2023-02-02T02:07:31.330Z,12.59
2023-02-02T02:08:33.886Z,13.16
2023-02-02T02:09:36.444Z,12.93
2023-02-02T02:10:39.117Z,11.67
2023-02-02T02:11:41.695Z,11.36
2023-02-02T02:12:44.172Z,11.85
2023-02-02T02:13:46.767Z,12.80
2023-02-02T02:14:49.347Z,13.16
2023-02-02T02:15:51.882Z,12.56
2023-02-02T02:16:54.932Z,12.70
2023-02-02T02:17:57.498Z,12.77
2023-02-02T02:19:00.093Z,11.71
2023-02-02T02:20:02.755Z,12.84
2023-02-02T02:21:05.308Z,11.31
2023-02-02T02:22:07.866Z,11.89
2023-02-02T02:23:10.395Z,11.85
2023-02-02T02:24:12.990Z,11.74
2023-02-02T02:25:15.559Z,11.52
2023-02-02T02:26:18.226Z,11.60
2023-02-02T02:27:20.768Z,11.67
2023-02-02T02:28:23.336Z,12.01
2023-02-02T02:29:25.900Z,11.95
2023-02-02T02:30:28.567Z,12.95
2023-02-02T02:31:31.221Z,11.70
2023-02-02T02:32:33.882Z,12.76
2023-02-02T02:33:36.442Z,12.90
2023-02-02T02:34:38.907Z,12.01
2023-02-02T02:35:41.490Z,13.31
2023-02-02T02:36:44.244Z,12.56
2023-02-02T02:37:46.796Z,13.39
2023-02-02T02:38:49.348Z,13.37
2023-02-02T02:39:51.938Z,13.82
2023-02-02T02:40:54.587Z,12.49
2023-02-02T02:41:57.140Z,12.69
2023-02-02T02:42:59.718Z,12.39
2023-02-02T02:44:02.246Z,12.64
2023-02-02T02:45:04.741Z,16.28
2023-02-02T02:46:07.738Z,13.14
2023-02-02T02:47:10.255Z,12.91
2023-02-02T02:48:12.817Z,12.79
2023-02-02T02:49:15.371Z,12.37
2023-02-02T02:50:18.127Z,12.77
2023-02-02T02:51:20.643Z,12.89
2023-02-02T02:52:23.099Z,12.68
2023-02-02T02:53:25.654Z,14.77
2023-02-02T02:54:28.171Z,11.88
2023-02-02T02:55:30.719Z,12.04
2023-02-02T02:56:33.775Z,12.48
2023-02-02T02:57:36.335Z,12.69
2023-02-02T02:58:38.896Z,13.37
2023-02-02T02:59:41.459Z,13.85
2023-02-02T03:00:44.114Z,12.50
2023-02-02T03:01:46.711Z,12.13
2023-02-02T03:02:49.463Z,11.98
2023-02-02T03:03:52.125Z,12.41
2023-02-02T03:04:54.672Z,12.42
2023-02-02T03:05:57.231Z,11.66
2023-02-02T03:07:00.188Z,13.72
2023-02-02T03:08:02.788Z,13.70
2023-02-02T03:09:05.354Z,13.35
2023-02-02T03:10:08.855Z,11.83
2023-02-02T03:11:11.397Z,14.20
2023-02-02T03:12:13.852Z,12.81
2023-02-02T03:13:16.312Z,14.03
2023-02-02T03:14:19.001Z,12.99
2023-02-02T03:15:21.544Z,14.55
2023-02-02T03:16:24.493Z,12.76
2023-02-02T03:17:27.041Z,14.32
2023-02-02T03:18:29.600Z,12.09
2023-02-02T03:19:32.158Z,12.88
2023-02-02T03:20:34.812Z,13.35
2023-02-02T03:21:37.392Z,12.31
2023-02-02T03:22:39.929Z,13.16
2023-02-02T03:23:42.479Z,12.04
2023-02-02T03:24:45.079Z,13.23
2023-02-02T03:25:47.635Z,14.92
2023-02-02T03:26:50.633Z,14.45
2023-02-02T03:27:53.254Z,14.18
2023-02-02T03:28:55.954Z,13.99
2023-02-02T03:29:58.562Z,12.77
2023-02-02T03:31:01.380Z,13.08
2023-02-02T03:32:04.164Z,12.23
2023-02-02T03:33:06.714Z,12.99
2023-02-02T03:34:09.169Z,12.40
2023-02-02T03:35:11.779Z,13.35
2023-02-02T03:36:14.553Z,13.11
2023-02-02T03:37:17.101Z,12.53
2023-02-02T03:38:19.666Z,12.09
2023-02-02T03:39:22.211Z,13.73
2023-02-02T03:40:24.958Z,12.00
2023-02-02T03:41:27.514Z,11.77
2023-02-02T03:42:30.072Z,11.89
2023-02-02T03:43:32.625Z,13.55
2023-02-02T03:44:35.184Z,11.63
2023-02-02T03:45:37.759Z,11.79
2023-02-02T03:46:40.355Z,13.12
2023-02-02T03:47:43.053Z,12.76
2023-02-02T03:48:45.541Z,11.70
2023-02-02T03:49:48.095Z,12.96
2023-02-02T03:50:51.086Z,13.59
2023-02-02T03:51:53.622Z,13.03
2023-02-02T03:52:56.175Z,13.87
2023-02-02T03:53:58.635Z,13.82
2023-02-02T03:55:01.187Z,15.04
2023-02-02T03:56:04.081Z,13.26
2023-02-02T03:57:06.636Z,13.01
2023-02-02T03:58:09.195Z,14.29
2023-02-02T03:59:11.766Z,14.91
2023-02-02T04:00:14.717Z,14.91
2023-02-02T04:01:17.281Z,13.37
2023-02-02T04:02:19.865Z,14.25
2023-02-02T04:03:22.402Z,14.20
2023-02-02T04:04:24.951Z,13.25
2023-02-02T04:05:27.502Z,13.89
2023-02-02T04:06:30.814Z,14.39
2023-02-02T04:07:33.384Z,14.37
2023-02-02T04:08:35.947Z,13.87
2023-02-02T04:09:38.493Z,13.40
2023-02-02T04:10:41.152Z,14.92
2023-02-02T04:11:43.741Z,13.19
2023-02-02T04:12:46.292Z,13.50
2023-02-02T04:13:48.955Z,13.99
2023-02-02T04:14:51.505Z,14.72
2023-02-02T04:15:53.973Z,15.48
2023-02-02T04:16:56.864Z,13.76
2023-02-02T04:17:59.426Z,13.73
2023-02-02T04:19:01.994Z,15.83
2023-02-02T04:20:04.473Z,15.01
2023-02-02T04:21:07.048Z,13.60
2023-02-02T04:22:09.598Z,16.63
2023-02-02T04:23:12.151Z,15.25
2023-02-02T04:24:14.717Z,14.57
2023-02-02T04:25:17.261Z,14.27
2023-02-02T04:26:20.001Z,14.25
2023-02-02T04:27:22.589Z,14.83
2023-02-02T04:28:25.137Z,14.57
2023-02-02T04:29:27.686Z,13.56
2023-02-02T04:30:30.672Z,15.93
2023-02-02T04:31:33.243Z,15.15
2023-02-02T04:32:35.958Z,15.11
2023-02-02T04:33:38.415Z,15.95
2023-02-02T04:34:40.978Z,15.13
2023-02-02T04:35:43.540Z,15.21
2023-02-02T04:36:46.302Z,14.62
2023-02-02T04:37:49.040Z,15.97
2023-02-02T04:38:51.641Z,15.69
2023-02-02T04:39:54.195Z,15.13
2023-02-02T04:40:56.959Z,15.80
2023-02-02T04:41:59.512Z,16.47
2023-02-02T04:43:02.072Z,14.34
2023-02-02T04:44:04.549Z,14.21
2023-02-02T04:45:07.024Z,15.35
2023-02-02T04:46:09.998Z,14.38
2023-02-02T04:47:12.720Z,15.41
2023-02-02T04:48:15.268Z,16.27
2023-02-02T04:49:17.837Z,15.88
2023-02-02T04:50:20.523Z,15.76
2023-02-02T04:51:23.110Z,16.19
2023-02-02T04:52:25.671Z,15.03
2023-02-02T04:53:28.227Z,15.03
2023-02-02T04:54:30.821Z,17.67
2023-02-02T04:55:33.431Z,15.47
2023-02-02T04:56:36.068Z,15.36
2023-02-02T04:57:38.630Z,15.81
2023-02-02T04:58:41.239Z,16.18
2023-02-02T04:59:43.983Z,14.69
2023-02-02T05:00:46.824Z,14.09
2023-02-02T05:01:49.574Z,14.64
2023-02-02T05:02:52.110Z,13.68
2023-02-02T05:03:54.575Z,16.05
2023-02-02T05:04:57.127Z,15.39
2023-02-02T05:05:59.694Z,15.35
2023-02-02T05:07:02.258Z,14.60
2023-02-02T05:08:04.824Z,15.57
2023-02-02T05:09:07.421Z,15.93
2023-02-02T05:10:10.189Z,13.40
2023-02-02T05:11:12.753Z,15.71
2023-02-02T05:12:15.311Z,16.45
2023-02-02T05:13:17.888Z,16.22
2023-02-02T05:14:20.461Z,16.47
2023-02-02T05:15:23.419Z,16.73
2023-02-02T05:16:28.785Z,15.54
2023-02-02T05:17:30.867Z,16.07
2023-02-02T05:18:33.424Z,15.23
2023-02-02T05:19:35.985Z,16.31
2023-02-02T05:20:38.763Z,14.23
2023-02-02T05:21:41.328Z,16.17
2023-02-02T05:22:43.891Z,17.45
2023-02-02T05:23:46.454Z,15.38
2023-02-02T05:24:49.069Z,14.44
2023-02-02T05:25:51.627Z,15.43
2023-02-02T05:26:54.492Z,16.57
2023-02-02T05:27:57.164Z,17.79
2023-02-02T05:28:59.755Z,17.24
2023-02-02T05:30:02.453Z,16.61
2023-02-02T05:31:05.062Z,15.85
2023-02-02T05:32:07.636Z,15.75
2023-02-02T05:33:10.158Z,17.20
2023-02-02T05:34:12.722Z,15.78
2023-02-02T05:35:15.289Z,15.94
2023-02-02T05:36:18.173Z,16.56
2023-02-02T05:37:20.739Z,17.07
2023-02-02T05:38:23.291Z,16.67
2023-02-02T05:39:25.854Z,17.17
2023-02-02T05:40:29.139Z,17.73
2023-02-02T05:41:31.709Z,16.61
2023-02-02T05:42:34.268Z,18.24
2023-02-02T05:43:36.826Z,17.07
2023-02-02T05:44:39.387Z,20.39
2023-02-02T05:45:41.964Z,16.05
2023-02-02T05:46:44.827Z,16.52
2023-02-02T05:47:47.395Z,18.67
2023-02-02T05:48:49.955Z,15.79
2023-02-02T05:49:52.507Z,17.83
2023-02-02T05:50:55.220Z,17.10
2023-02-02T05:51:57.773Z,16.44
2023-02-02T05:53:00.233Z,16.63
2023-02-02T05:54:02.800Z,17.49
2023-02-02T05:55:05.351Z,16.67
2023-02-02T05:56:08.632Z,18.59
2023-02-02T05:57:11.192Z,16.49
2023-02-02T05:58:13.751Z,17.48
2023-02-02T05:59:16.305Z,17.31
2023-02-02T06:00:19.171Z,17.26
2023-02-02T06:01:21.933Z,18.00
2023-02-02T06:02:24.556Z,17.80
2023-02-02T06:03:27.223Z,18.09
2023-02-02T06:04:29.896Z,16.44
2023-02-02T06:05:32.441Z,17.89
2023-02-02T06:06:35.215Z,15.85
2023-02-02T06:07:37.816Z,17.25
2023-02-02T06:08:40.418Z,18.28
2023-02-02T06:09:42.976Z,16.37
2023-02-02T06:10:45.633Z,17.68
2023-02-02T06:11:48.192Z,19.12
2023-02-02T06:12:50.797Z,18.53
2023-02-02T06:13:53.347Z,17.54
2023-02-02T06:14:55.916Z,19.17
2023-02-02T06:15:58.531Z,21.44
2023-02-02T06:17:01.334Z,18.68
2023-02-02T06:18:03.908Z,19.31
2023-02-02T06:19:06.664Z,18.48
2023-02-02T06:20:10.575Z,19.68
2023-02-02T06:21:13.118Z,19.83
2023-02-02T06:22:15.685Z,21.02
2023-02-02T06:23:18.252Z,19.37
2023-02-02T06:24:20.824Z,20.99
2023-02-02T06:25:23.747Z,18.83
2023-02-02T06:26:27.032Z,19.51
2023-02-02T06:27:29.919Z,18.23
2023-02-02T06:28:32.466Z,19.97
2023-02-02T06:29:35.022Z,18.61
2023-02-02T06:30:38.001Z,22.23
2023-02-02T06:31:41.223Z,21.89
2023-02-02T06:32:43.847Z,19.57
2023-02-02T06:33:46.427Z,18.38
2023-02-02T06:34:48.965Z,17.96
2023-02-02T06:35:51.580Z,17.15
2023-02-02T06:36:54.220Z,16.11
2023-02-02T06:37:56.776Z,17.96
2023-02-02T06:38:59.350Z,17.71
2023-02-02T06:40:01.907Z,15.49
2023-02-02T06:41:04.482Z,15.67
2023-02-02T06:42:20.448Z,17.23
2023-02-02T06:43:11.452Z,17.05
2023-02-02T06:44:14.004Z,15.70
2023-02-02T06:45:16.564Z,14.81
2023-02-02T06:46:19.514Z,14.01
2023-02-02T06:47:22.138Z,15.41
2023-02-02T06:48:24.702Z,14.33
2023-02-02T06:49:27.269Z,15.23
2023-02-02T06:50:30.131Z,14.77
2023-02-02T06:51:32.756Z,12.82
2023-02-02T06:52:35.321Z,13.49
2023-02-02T06:53:37.870Z,14.34
2023-02-02T06:54:40.527Z,16.03
2023-02-02T06:55:43.085Z,14.96
2023-02-02T06:56:45.870Z,14.14
2023-02-02T06:57:48.863Z,17.39
2023-02-02T06:58:51.423Z,17.41
2023-02-02T06:59:53.973Z,18.43
2023-02-02T07:00:56.849Z,17.48
2023-02-02T07:01:59.461Z,18.63
2023-02-02T07:03:02.039Z,18.29
2023-02-02T07:04:04.926Z,18.81
2023-02-02T07:05:07.451Z,18.07
2023-02-02T07:06:10.208Z,19.12
2023-02-02T07:07:12.809Z,17.25
2023-02-02T07:08:15.355Z,19.33
2023-02-02T07:09:17.927Z,19.97
2023-02-02T07:11:13.390Z,19.06
2023-02-02T07:11:24.945Z,21.42
2023-02-02T07:12:27.765Z,20.76
2023-02-02T07:13:30.282Z,21.85
2023-02-02T07:14:33.046Z,21.90
2023-02-02T07:15:35.751Z,20.64
2023-02-02T07:16:38.645Z,19.42
2023-02-02T07:17:41.223Z,20.51
2023-02-02T07:18:43.764Z,19.53
2023-02-02T07:19:46.323Z,18.45
2023-02-02T07:20:49.085Z,17.35
2023-02-02T07:21:51.642Z,17.64
2023-02-02T07:22:54.243Z,14.68
2023-02-02T07:23:56.789Z,16.10
2023-02-02T07:24:59.346Z,15.51
2023-02-02T07:26:01.905Z,15.55
2023-02-02T07:27:04.468Z,14.52
2023-02-02T07:28:07.024Z,17.69
2023-02-02T07:29:09.582Z,15.47
2023-02-02T07:30:12.756Z,15.10
2023-02-02T07:31:15.483Z,15.29
2023-02-02T07:32:18.182Z,14.53
2023-02-02T07:33:20.778Z,15.43
2023-02-02T07:34:23.351Z,15.90
2023-02-02T07:35:26.099Z,14.46
2023-02-02T07:36:29.170Z,13.83
2023-02-02T07:37:31.728Z,14.64
2023-02-02T07:38:34.324Z,16.59
2023-02-02T07:39:36.884Z,10.81
2023-02-02T07:40:39.734Z,15.81
2023-02-02T07:41:42.287Z,14.85
2023-02-02T07:42:46.391Z,14.69
2023-02-02T07:43:49.201Z,14.71
2023-02-02T07:44:51.767Z,15.84
2023-02-02T07:45:54.342Z,14.85
2023-02-02T07:46:56.972Z,15.46
2023-02-02T07:47:59.550Z,15.20
2023-02-02T07:49:02.417Z,14.26
2023-02-02T07:50:05.373Z,13.79
2023-02-02T07:51:07.926Z,13.29
2023-02-02T07:52:10.490Z,15.39
2023-02-02T07:53:13.041Z,15.19
2023-02-02T07:54:15.647Z,11.53
2023-02-02T07:55:18.196Z,15.57
2023-02-02T07:56:21.064Z,14.86
2023-02-02T07:57:23.725Z,11.75
2023-02-02T07:58:26.286Z,14.29
2023-02-02T07:59:31.267Z,14.44
2023-02-02T08:00:33.605Z,13.61
2023-02-02T08:01:36.157Z,14.70
2023-02-02T08:02:38.684Z,13.59
2023-02-02T08:03:41.231Z,14.57
2023-02-02T08:04:43.824Z,14.25
2023-02-02T08:05:46.292Z,15.74
2023-02-02T08:06:48.969Z,14.69
2023-02-02T08:07:51.528Z,13.91
2023-02-02T08:08:54.083Z,14.64
2023-02-02T08:09:56.645Z,13.29
2023-02-02T08:10:59.314Z,12.68
2023-02-02T08:12:01.915Z,13.16
2023-02-02T08:13:04.721Z,14.53
2023-02-02T08:14:07.278Z,13.85
2023-02-02T08:15:10.904Z,11.93
2023-02-02T08:16:14.344Z,13.81
2023-02-02T08:17:16.848Z,13.51
2023-02-02T08:18:19.398Z,13.95
2023-02-02T08:19:21.950Z,13.33
2023-02-02T08:20:24.950Z,13.77
2023-02-02T08:21:27.593Z,13.47
2023-02-02T08:22:30.129Z,14.45
2023-02-02T08:23:32.689Z,14.24
2023-02-02T08:24:35.243Z,14.99
2023-02-02T08:25:37.802Z,14.76
2023-02-02T08:26:40.367Z,14.09
2023-02-02T08:27:42.903Z,15.51
2023-02-02T08:28:45.479Z,14.51
2023-02-02T08:29:48.024Z,13.92
2023-02-02T08:30:50.752Z,14.31
2023-02-02T08:31:53.484Z,13.08
2023-02-02T08:32:56.309Z,13.16
2023-02-02T08:33:58.861Z,13.02
2023-02-02T08:35:01.433Z,14.75
2023-02-02T08:36:04.047Z,13.67
2023-02-02T08:37:06.598Z,14.51
2023-02-02T08:38:09.148Z,13.86
2023-02-02T08:39:11.700Z,13.15
2023-02-02T08:40:14.413Z,13.49
2023-02-02T08:41:17.063Z,12.12
2023-02-02T08:42:19.604Z,14.53
2023-02-02T08:43:22.167Z,13.09
2023-02-02T08:44:24.719Z,12.68
2023-02-02T08:46:04.028Z,13.86
2023-02-02T08:46:33.830Z,13.14
2023-02-02T08:47:36.465Z,11.94
2023-02-02T08:48:39.427Z,12.37
2023-02-02T08:49:42.070Z,12.96
2023-02-02T08:50:44.730Z,12.81
2023-02-02T08:51:47.323Z,12.40
2023-02-02T08:52:49.881Z,12.75
2023-02-02T08:53:52.439Z,13.84
2023-02-02T08:54:55.011Z,12.77
2023-02-02T08:55:57.553Z,12.99
2023-02-02T08:57:00.569Z,13.53
2023-02-02T08:58:03.108Z,12.63
2023-02-02T08:59:05.665Z,13.79
2023-02-02T09:00:08.727Z,12.94
2023-02-02T09:01:11.335Z,12.32
2023-02-02T09:02:14.197Z,12.85
2023-02-02T09:03:16.805Z,9.89
2023-02-02T09:04:19.382Z,11.49
2023-02-02T09:05:22.053Z,10.29
2023-02-02T09:06:25.096Z,10.44
2023-02-02T09:07:27.655Z,11.29
2023-02-02T09:08:30.244Z,12.10
2023-02-02T09:09:32.784Z,11.68
2023-02-02T09:10:35.442Z,11.31
2023-02-02T09:11:38.007Z,11.09
2023-02-02T09:12:40.564Z,9.33
2023-02-02T09:13:43.138Z,11.39
2023-02-02T09:14:45.689Z,10.23
2023-02-02T09:15:48.262Z,11.89
2023-02-02T09:16:51.412Z,11.11
2023-02-02T09:17:54.149Z,11.14
2023-02-02T09:18:56.757Z,11.44
2023-02-02T09:19:59.308Z,10.61
2023-02-02T09:21:02.186Z,10.69
2023-02-02T09:22:04.732Z,9.39
2023-02-02T09:23:07.300Z,10.08
2023-02-02T09:24:09.887Z,10.49
2023-02-02T09:25:12.451Z,9.54
2023-02-02T09:26:15.219Z,10.94
2023-02-02T09:27:17.770Z,11.73
2023-02-02T09:28:20.340Z,10.78
2023-02-02T09:29:22.939Z,10.52
2023-02-02T09:30:25.903Z,11.24
2023-02-02T09:31:28.508Z,10.54
2023-02-02T09:32:31.235Z,11.98
2023-02-02T09:33:33.794Z,12.85
2023-02-02T09:34:36.405Z,12.20
2023-02-02T09:35:38.947Z,11.83
2023-02-02T09:36:41.933Z,11.39
2023-02-02T09:37:44.881Z,12.59
2023-02-02T09:38:47.468Z,11.60
2023-02-02T09:39:50.034Z,11.25
2023-02-02T09:40:52.909Z,11.97
2023-02-02T09:41:55.469Z,11.47
2023-02-02T09:42:58.041Z,12.49
2023-02-02T09:44:00.596Z,11.87
2023-02-02T09:45:03.487Z,13.13
2023-02-02T09:46:06.588Z,12.58
2023-02-02T09:47:09.218Z,12.23
2023-02-02T09:48:11.771Z,12.69
2023-02-02T09:49:14.329Z,13.19
2023-02-02T09:50:17.508Z,13.67
2023-02-02T09:51:20.083Z,12.05
2023-02-02T09:52:22.631Z,12.74
2023-02-02T09:53:25.512Z,11.11
2023-02-02T09:54:28.058Z,15.36
2023-02-02T09:55:30.627Z,12.85
2023-02-02T09:56:33.486Z,12.93
2023-02-02T09:57:36.045Z,12.73
2023-02-02T09:58:38.606Z,12.88
2023-02-02T09:59:41.062Z,11.93
2023-02-02T10:00:43.936Z,13.60
2023-02-02T10:01:46.500Z,12.63
2023-02-02T10:02:49.057Z,13.03
2023-02-02T10:03:51.644Z,12.45
2023-02-02T10:04:54.190Z,11.52
2023-02-02T10:05:56.770Z,11.64
2023-02-02T10:06:59.650Z,12.32
2023-02-02T10:08:02.203Z,12.65
2023-02-02T10:09:04.763Z,11.13
2023-02-02T10:10:07.937Z,14.99
2023-02-02T10:11:10.541Z,13.89
2023-02-02T10:12:13.103Z,12.51
2023-02-02T10:13:15.646Z,12.03
2023-02-02T10:14:18.210Z,13.13
2023-02-02T10:15:21.288Z,12.82
2023-02-02T10:16:24.102Z,14.24
2023-02-02T10:17:26.648Z,13.77
2023-02-02T10:18:29.205Z,13.55
2023-02-02T10:19:31.804Z,13.45
2023-02-02T10:20:35.006Z,13.34
2023-02-02T10:21:37.564Z,13.72
2023-02-02T10:22:40.028Z,13.81
2023-02-02T10:23:42.593Z,13.31
2023-02-02T10:24:45.502Z,13.70
2023-02-02T10:25:48.060Z,13.54
2023-02-02T10:26:51.012Z,13.74
2023-02-02T10:27:53.584Z,15.13
2023-02-02T10:28:56.140Z,14.42
2023-02-02T10:29:58.701Z,16.47
2023-02-02T10:31:01.484Z,12.80
2023-02-02T10:32:04.443Z,15.86
2023-02-02T10:33:07.056Z,13.49
2023-02-02T10:34:09.591Z,16.58
2023-02-02T10:35:14.293Z,15.91
2023-02-02T10:36:16.867Z,16.69
2023-02-02T10:37:19.479Z,16.32
2023-02-02T10:38:23.168Z,17.94
2023-02-02T10:39:25.764Z,18.13
2023-02-02T10:40:28.520Z,16.73
2023-02-02T10:41:31.337Z,17.12
2023-02-02T10:42:33.923Z,17.69
2023-02-02T10:43:36.636Z,18.19
2023-02-02T10:44:39.201Z,20.60
2023-02-02T10:45:41.762Z,19.15
2023-02-02T10:46:45.030Z,18.87
2023-02-02T10:47:47.933Z,20.01
2023-02-02T10:48:50.715Z,21.93
2023-02-02T10:49:56.174Z,19.91
2023-02-02T10:50:58.140Z,15.31
2023-02-02T10:52:00.698Z,18.17
2023-02-02T10:53:03.285Z,18.42
2023-02-02T10:54:05.875Z,18.83
2023-02-02T10:55:08.425Z,17.71
2023-02-02T10:56:11.554Z,18.79
2023-02-02T10:57:14.108Z,19.45
2023-02-02T10:58:16.661Z,18.98
2023-02-02T10:59:19.226Z,17.97
2023-02-02T11:00:23.253Z,19.56
2023-02-02T11:01:26.203Z,18.29
2023-02-02T11:02:28.763Z,19.29
2023-02-02T11:03:31.359Z,19.31
2023-02-02T11:04:33.933Z,18.33
2023-02-02T11:05:36.461Z,19.17
2023-02-02T11:06:39.423Z,20.78
2023-02-02T11:07:41.979Z,20.16
2023-02-02T11:08:44.577Z,20.24
2023-02-02T11:09:47.330Z,18.21
2023-02-02T11:10:50.093Z,20.67
2023-02-02T11:11:52.756Z,18.85
2023-02-02T11:12:55.494Z,20.18
2023-02-02T11:13:58.117Z,18.69
2023-02-02T11:15:00.641Z,18.92
2023-02-02T11:16:05.816Z,18.57
2023-02-02T11:17:07.784Z,19.62
2023-02-02T11:18:10.342Z,19.30
2023-02-02T11:19:13.068Z,18.42
2023-02-02T11:20:15.826Z,20.81
2023-02-02T11:21:18.659Z,24.51
2023-02-02T11:22:21.120Z,20.96
2023-02-02T11:23:23.677Z,20.27
2023-02-02T11:24:26.279Z,20.15
2023-02-02T11:25:28.831Z,20.95
2023-02-02T11:26:31.831Z,18.27
2023-02-02T11:27:34.652Z,20.92
2023-02-02T11:28:37.202Z,18.40
2023-02-02T11:29:39.827Z,20.18
2023-02-02T11:30:42.708Z,20.44
2023-02-02T11:31:45.284Z,18.81
2023-02-02T11:32:48.022Z,18.39
2023-02-02T11:33:50.572Z,19.49
2023-02-02T11:34:53.176Z,18.34
2023-02-02T11:35:55.747Z,17.92
2023-02-02T11:36:58.729Z,17.77
2023-02-02T11:38:01.262Z,17.99
2023-02-02T11:39:03.723Z,16.45
2023-02-02T11:40:06.733Z,18.89
2023-02-02T11:41:09.286Z,17.19
2023-02-02T11:42:11.861Z,18.23
2023-02-02T11:43:14.409Z,18.13
2023-02-02T11:44:16.992Z,19.15
2023-02-02T11:45:19.588Z,17.11
2023-02-02T11:46:22.387Z,18.26
2023-02-02T11:47:24.905Z,19.99
2023-02-02T11:48:27.463Z,18.32
2023-02-02T11:49:30.030Z,19.85
2023-02-02T11:50:32.840Z,19.69
2023-02-02T11:51:35.407Z,19.10
2023-02-02T11:52:37.968Z,23.25
2023-02-02T11:53:40.526Z,21.09
2023-02-02T11:54:44.115Z,21.73
2023-02-02T11:55:46.662Z,21.00
2023-02-02T11:56:49.455Z,20.57
2023-02-02T11:57:52.011Z,19.97
2023-02-02T11:58:54.568Z,19.60
2023-02-02T11:59:57.129Z,20.67
2023-02-02T12:01:00.128Z,17.89
2023-02-02T12:02:02.871Z,20.96
2023-02-02T12:03:05.722Z,19.98
2023-02-02T12:04:08.551Z,21.79
2023-02-02T12:05:11.463Z,19.29
2023-02-02T12:06:14.339Z,20.50
2023-02-02T12:07:16.909Z,20.20
2023-02-02T12:08:19.496Z,22.57
2023-02-02T12:09:22.071Z,21.82
2023-02-02T12:10:25.336Z,21.62
2023-02-02T12:11:28.309Z,20.23
2023-02-02T12:12:30.868Z,18.55
2023-02-02T12:13:33.429Z,19.17
2023-02-02T12:14:36.024Z,20.09
2023-02-02T12:15:38.547Z,21.29
2023-02-02T12:16:41.331Z,18.75
2023-02-02T12:17:43.880Z,20.37
2023-02-02T12:18:46.453Z,21.29
2023-02-02T12:19:49.024Z,18.69
2023-02-02T12:20:51.806Z,19.45
2023-02-02T12:21:54.354Z,22.00
2023-02-02T12:22:56.935Z,19.80
2023-02-02T12:23:59.694Z,20.86
2023-02-02T12:25:02.255Z,19.35
2023-02-02T12:26:05.015Z,20.02
2023-02-02T12:27:07.584Z,19.27
2023-02-02T12:28:11.572Z,16.70
2023-02-02T12:29:14.279Z,16.29
2023-02-02T12:30:16.934Z,20.77
2023-02-02T12:31:19.544Z,18.45
2023-02-02T12:32:22.315Z,18.59
2023-02-02T12:33:24.890Z,19.07
2023-02-02T12:34:27.455Z,21.99
2023-02-02T12:35:30.018Z,19.76
2023-02-02T12:36:32.664Z,19.17
2023-02-02T12:37:35.230Z,19.01
2023-02-02T12:38:37.798Z,18.34
2023-02-02T12:39:40.364Z,17.54
2023-02-02T12:40:43.134Z,19.58
2023-02-02T12:41:45.708Z,16.80
2023-02-02T12:42:48.389Z,19.07
2023-02-02T12:43:51.315Z,19.99
2023-02-02T12:44:53.882Z,19.02
2023-02-02T12:45:56.465Z,14.84
2023-02-02T12:46:59.397Z,16.94
2023-02-02T12:48:02.245Z,18.55
2023-02-02T12:49:04.800Z,19.79
2023-02-02T12:50:08.001Z,19.65
2023-02-02T12:51:10.555Z,17.95
2023-02-02T12:52:13.118Z,18.46
2023-02-02T12:53:15.673Z,18.09
2023-02-02T12:54:32.712Z,19.63
2023-02-02T12:55:22.605Z,17.62
2023-02-02T12:56:25.576Z,18.56
2023-02-02T12:57:28.138Z,18.55
2023-02-02T12:58:30.706Z,20.47
2023-02-02T12:59:33.270Z,16.77
2023-02-02T13:00:35.928Z,18.29
2023-02-02T13:01:38.491Z,19.40
2023-02-02T13:02:41.059Z,19.09
2023-02-02T13:03:43.694Z,19.22
2023-02-02T13:04:46.253Z,19.25
2023-02-02T13:05:48.707Z,19.63
2023-02-02T13:06:51.682Z,19.24
2023-02-02T13:07:54.236Z,19.31
2023-02-02T13:08:56.853Z,21.73
2023-02-02T13:09:59.401Z,20.34
2023-02-02T13:11:02.267Z,20.51
2023-02-02T13:12:04.865Z,21.56
2023-02-02T13:13:07.398Z,22.57
2023-02-02T13:14:09.962Z,21.29
2023-02-02T13:15:12.541Z,22.25
2023-02-02T13:16:15.358Z,23.54
2023-02-02T13:17:17.960Z,29.45
2023-02-02T13:18:20.557Z,22.31
2023-02-02T13:19:23.119Z,21.51
2023-02-02T13:20:26.276Z,19.56
2023-02-02T13:21:29.262Z,20.66
2023-02-02T13:22:31.814Z,20.46
2023-02-02T13:23:34.423Z,20.30
2023-02-02T13:24:36.979Z,19.54
2023-02-02T13:25:39.529Z,21.21
2023-02-02T13:26:42.424Z,20.24